sensor_id;sensor_type;location;lat;lon;timestamp;P1;durP1;ratioP1;P2;durP2;ratioP2
5199;SDS011;2619;47.868;11.892;2023-07-16T00:00:25;5.90;;;5.10;;
5199;SDS011;2619;47.868;11.892;2023-07-16T00:02:51;6.97;;;5.67;;
5199;SDS011;2619;47.868;11.892;2023-07-16T00:05:16;6.17;;;4.70;;
5199;SDS011;2619;47.868;11.892;2023-07-16T00:07:42;7.50;;;4.93;;
5199;SDS011;2619;47.868;11.892;2023-07-16T00:10:07;9.57;;;5.33;;
5199;SDS011;2619;47.868;11.892;2023-07-16T00:12:33;7.13;;;4.73;;
5199;SDS011;2619;47.868;11.892;2023-07-16T00:14:59;5.67;;;5.07;;
5199;SDS011;2619;47.868;11.892;2023-07-16T00:17:24;5.73;;;5.13;;
5199;SDS011;2619;47.868;11.892;2023-07-16T00:19:50;6.83;;;5.63;;
5199;SDS011;2619;47.868;11.892;2023-07-16T00:22:15;7.70;;;6.07;;
5199;SDS011;2619;47.868;11.892;2023-07-16T00:24:41;6.33;;;5.70;;
5199;SDS011;2619;47.868;11.892;2023-07-16T00:27:06;5.93;;;5.33;;
5199;SDS011;2619;47.868;11.892;2023-07-16T00:29:32;7.50;;;5.93;;
5199;SDS011;2619;47.868;11.892;2023-07-16T00:31:57;11.30;;;5.20;;
5199;SDS011;2619;47.868;11.892;2023-07-16T00:34:23;6.60;;;5.80;;
5199;SDS011;2619;47.868;11.892;2023-07-16T00:36:49;7.17;;;6.10;;
5199;SDS011;2619;47.868;11.892;2023-07-16T00:39:14;7.30;;;5.47;;
5199;SDS011;2619;47.868;11.892;2023-07-16T00:41:40;7.63;;;5.57;;
5199;SDS011;2619;47.868;11.892;2023-07-16T00:44:06;6.57;;;5.90;;
5199;SDS011;2619;47.868;11.892;2023-07-16T00:46:32;8.43;;;6.17;;
5199;SDS011;2619;47.868;11.892;2023-07-16T00:48:58;7.63;;;6.33;;
5199;SDS011;2619;47.868;11.892;2023-07-16T00:51:24;6.47;;;5.50;;
5199;SDS011;2619;47.868;11.892;2023-07-16T00:53:50;6.77;;;6.13;;
5199;SDS011;2619;47.868;11.892;2023-07-16T00:56:17;6.57;;;5.83;;
5199;SDS011;2619;47.868;11.892;2023-07-16T00:58:42;8.37;;;6.40;;
5199;SDS011;2619;47.868;11.892;2023-07-16T01:01:08;9.80;;;5.53;;
5199;SDS011;2619;47.868;11.892;2023-07-16T01:03:34;9.00;;;6.30;;
5199;SDS011;2619;47.868;11.892;2023-07-16T01:08:40;7.13;;;6.13;;
5199;SDS011;2619;47.868;11.892;2023-07-16T01:11:09;8.23;;;5.90;;
5199;SDS011;2619;47.868;11.892;2023-07-16T01:13:35;11.00;;;6.27;;
5199;SDS011;2619;47.868;11.892;2023-07-16T01:16:01;7.70;;;5.47;;
5199;SDS011;2619;47.868;11.892;2023-07-16T01:18:27;7.03;;;6.30;;
5199;SDS011;2619;47.868;11.892;2023-07-16T01:20:53;6.63;;;6.03;;
5199;SDS011;2619;47.868;11.892;2023-07-16T01:31:05;6.97;;;5.67;;
5199;SDS011;2619;47.868;11.892;2023-07-16T01:33:33;6.90;;;6.20;;
5199;SDS011;2619;47.868;11.892;2023-07-16T01:35:59;6.47;;;5.87;;
5199;SDS011;2619;47.868;11.892;2023-07-16T01:38:25;7.27;;;5.83;;
5199;SDS011;2619;47.868;11.892;2023-07-16T01:40:50;8.53;;;6.30;;
5199;SDS011;2619;47.868;11.892;2023-07-16T01:43:16;11.50;;;7.00;;
5199;SDS011;2619;47.868;11.892;2023-07-16T01:45:42;9.40;;;7.37;;
5199;SDS011;2619;47.868;11.892;2023-07-16T01:50:51;7.10;;;5.63;;
5199;SDS011;2619;47.868;11.892;2023-07-16T01:53:16;7.50;;;6.10;;
5199;SDS011;2619;47.868;11.892;2023-07-16T01:55:42;7.47;;;6.70;;
5199;SDS011;2619;47.868;11.892;2023-07-16T01:58:07;8.57;;;6.03;;
5199;SDS011;2619;47.868;11.892;2023-07-16T02:00:34;7.67;;;6.40;;
5199;SDS011;2619;47.868;11.892;2023-07-16T02:03:00;8.70;;;6.77;;
5199;SDS011;2619;47.868;11.892;2023-07-16T02:05:26;8.13;;;7.43;;
5199;SDS011;2619;47.868;11.892;2023-07-16T02:07:51;6.90;;;6.20;;
5199;SDS011;2619;47.868;11.892;2023-07-16T02:10:17;7.30;;;5.93;;
5199;SDS011;2619;47.868;11.892;2023-07-16T02:12:43;8.50;;;6.30;;
5199;SDS011;2619;47.868;11.892;2023-07-16T02:15:08;7.20;;;6.50;;
5199;SDS011;2619;47.868;11.892;2023-07-16T02:17:34;7.03;;;6.30;;
5199;SDS011;2619;47.868;11.892;2023-07-16T02:20:00;7.17;;;5.97;;
5199;SDS011;2619;47.868;11.892;2023-07-16T02:22:25;7.50;;;6.80;;
5199;SDS011;2619;47.868;11.892;2023-07-16T02:24:51;9.47;;;6.50;;
5199;SDS011;2619;47.868;11.892;2023-07-16T02:27:17;7.60;;;6.90;;
5199;SDS011;2619;47.868;11.892;2023-07-16T02:29:43;6.87;;;6.27;;
5199;SDS011;2619;47.868;11.892;2023-07-16T02:32:08;7.20;;;6.43;;
5199;SDS011;2619;47.868;11.892;2023-07-16T02:34:34;10.80;;;6.60;;
5199;SDS011;2619;47.868;11.892;2023-07-16T02:36:59;7.90;;;6.00;;
5199;SDS011;2619;47.868;11.892;2023-07-16T02:39:25;7.87;;;6.47;;
5199;SDS011;2619;47.868;11.892;2023-07-16T02:41:50;7.90;;;6.60;;
5199;SDS011;2619;47.868;11.892;2023-07-16T02:44:16;8.67;;;7.10;;
5199;SDS011;2619;47.868;11.892;2023-07-16T02:46:41;6.97;;;6.27;;
5199;SDS011;2619;47.868;11.892;2023-07-16T02:49:09;7.80;;;7.00;;
5199;SDS011;2619;47.868;11.892;2023-07-16T02:51:34;7.43;;;6.73;;
5199;SDS011;2619;47.868;11.892;2023-07-16T02:54:00;7.50;;;6.17;;
5199;SDS011;2619;47.868;11.892;2023-07-16T02:56:25;9.07;;;7.83;;
5199;SDS011;2619;47.868;11.892;2023-07-16T02:58:51;7.47;;;6.77;;
5199;SDS011;2619;47.868;11.892;2023-07-16T03:01:16;8.00;;;7.20;;
5199;SDS011;2619;47.868;11.892;2023-07-16T03:03:42;12.30;;;7.40;;
5199;SDS011;2619;47.868;11.892;2023-07-16T03:06:08;8.33;;;7.53;;
5199;SDS011;2619;47.868;11.892;2023-07-16T03:08:33;7.50;;;6.80;;
5199;SDS011;2619;47.868;11.892;2023-07-16T03:11:00;9.67;;;7.30;;
5199;SDS011;2619;47.868;11.892;2023-07-16T03:13:25;8.10;;;7.30;;
5199;SDS011;2619;47.868;11.892;2023-07-16T03:15:51;8.73;;;7.73;;
5199;SDS011;2619;47.868;11.892;2023-07-16T03:18:19;8.90;;;6.60;;
5199;SDS011;2619;47.868;11.892;2023-07-16T03:20:45;8.33;;;7.23;;
5199;SDS011;2619;47.868;11.892;2023-07-16T03:23:10;7.83;;;6.47;;
5199;SDS011;2619;47.868;11.892;2023-07-16T03:25:37;8.57;;;6.80;;
5199;SDS011;2619;47.868;11.892;2023-07-16T03:28:02;8.33;;;7.17;;
5199;SDS011;2619;47.868;11.892;2023-07-16T03:30:30;7.47;;;6.73;;
5199;SDS011;2619;47.868;11.892;2023-07-16T03:32:55;10.90;;;8.57;;
5199;SDS011;2619;47.868;11.892;2023-07-16T03:35:21;11.50;;;7.40;;
5199;SDS011;2619;47.868;11.892;2023-07-16T03:37:47;7.63;;;6.77;;
5199;SDS011;2619;47.868;11.892;2023-07-16T03:40:16;8.73;;;6.77;;
5199;SDS011;2619;47.868;11.892;2023-07-16T03:42:44;6.80;;;6.20;;
5199;SDS011;2619;47.868;11.892;2023-07-16T03:45:10;8.60;;;6.63;;
5199;SDS011;2619;47.868;11.892;2023-07-16T03:47:36;7.80;;;7.00;;
5199;SDS011;2619;47.868;11.892;2023-07-16T03:50:02;10.13;;;7.30;;
5199;SDS011;2619;47.868;11.892;2023-07-16T03:52:28;7.20;;;6.40;;
5199;SDS011;2619;47.868;11.892;2023-07-16T03:54:54;8.13;;;7.33;;
5199;SDS011;2619;47.868;11.892;2023-07-16T03:57:20;7.50;;;6.77;;
5199;SDS011;2619;47.868;11.892;2023-07-16T03:59:45;8.00;;;7.17;;
5199;SDS011;2619;47.868;11.892;2023-07-16T04:02:11;7.27;;;6.27;;
5199;SDS011;2619;47.868;11.892;2023-07-16T04:04:36;7.77;;;6.97;;
5199;SDS011;2619;47.868;11.892;2023-07-16T04:07:02;7.17;;;6.47;;
5199;SDS011;2619;47.868;11.892;2023-07-16T04:09:28;7.47;;;6.77;;
5199;SDS011;2619;47.868;11.892;2023-07-16T04:11:53;7.77;;;7.00;;
5199;SDS011;2619;47.868;11.892;2023-07-16T04:14:19;7.13;;;6.43;;
5199;SDS011;2619;47.868;11.892;2023-07-16T04:16:44;7.40;;;6.70;;
5199;SDS011;2619;47.868;11.892;2023-07-16T04:19:10;9.97;;;8.20;;
5199;SDS011;2619;47.868;11.892;2023-07-16T04:21:36;9.20;;;8.30;;
5199;SDS011;2619;47.868;11.892;2023-07-16T04:24:04;8.70;;;7.80;;
5199;SDS011;2619;47.868;11.892;2023-07-16T04:26:30;8.70;;;7.90;;
5199;SDS011;2619;47.868;11.892;2023-07-16T04:28:56;8.60;;;7.70;;
5199;SDS011;2619;47.868;11.892;2023-07-16T04:31:22;8.50;;;7.70;;
5199;SDS011;2619;47.868;11.892;2023-07-16T04:33:48;9.50;;;7.70;;
5199;SDS011;2619;47.868;11.892;2023-07-16T04:36:13;10.60;;;8.60;;
5199;SDS011;2619;47.868;11.892;2023-07-16T04:38:40;9.60;;;8.63;;
5199;SDS011;2619;47.868;11.892;2023-07-16T04:41:05;8.77;;;7.80;;
5199;SDS011;2619;47.868;11.892;2023-07-16T04:43:31;8.87;;;7.97;;
5199;SDS011;2619;47.868;11.892;2023-07-16T04:45:56;9.40;;;8.00;;
5199;SDS011;2619;47.868;11.892;2023-07-16T04:48:22;9.60;;;8.63;;
5199;SDS011;2619;47.868;11.892;2023-07-16T04:50:47;11.20;;;9.30;;
5199;SDS011;2619;47.868;11.892;2023-07-16T04:53:13;9.73;;;8.77;;
5199;SDS011;2619;47.868;11.892;2023-07-16T04:55:39;10.27;;;9.13;;
5199;SDS011;2619;47.868;11.892;2023-07-16T04:58:05;10.20;;;8.80;;
5199;SDS011;2619;47.868;11.892;2023-07-16T05:00:32;13.83;;;9.47;;
5199;SDS011;2619;47.868;11.892;2023-07-16T05:02:58;9.63;;;8.63;;
5199;SDS011;2619;47.868;11.892;2023-07-16T05:05:24;10.10;;;8.67;;
5199;SDS011;2619;47.868;11.892;2023-07-16T05:07:49;9.90;;;8.50;;
5199;SDS011;2619;47.868;11.892;2023-07-16T05:10:15;9.10;;;7.37;;
5199;SDS011;2619;47.868;11.892;2023-07-16T05:12:40;16.90;;;9.00;;
5199;SDS011;2619;47.868;11.892;2023-07-16T05:15:06;15.63;;;9.07;;
5199;SDS011;2619;47.868;11.892;2023-07-16T05:17:32;13.50;;;7.87;;
5199;SDS011;2619;47.868;11.892;2023-07-16T05:19:58;9.97;;;8.97;;
5199;SDS011;2619;47.868;11.892;2023-07-16T05:22:23;11.30;;;9.17;;
5199;SDS011;2619;47.868;11.892;2023-07-16T05:24:49;8.77;;;7.90;;
5199;SDS011;2619;47.868;11.892;2023-07-16T05:27:14;9.23;;;7.93;;
5199;SDS011;2619;47.868;11.892;2023-07-16T05:29:40;9.10;;;8.00;;
5199;SDS011;2619;47.868;11.892;2023-07-16T05:32:06;9.37;;;8.37;;
5199;SDS011;2619;47.868;11.892;2023-07-16T05:34:32;9.97;;;8.07;;
5199;SDS011;2619;47.868;11.892;2023-07-16T05:36:58;9.60;;;8.10;;
5199;SDS011;2619;47.868;11.892;2023-07-16T05:39:24;10.47;;;8.90;;
5199;SDS011;2619;47.868;11.892;2023-07-16T05:41:49;11.07;;;9.50;;
5199;SDS011;2619;47.868;11.892;2023-07-16T05:44:15;8.30;;;7.50;;
5199;SDS011;2619;47.868;11.892;2023-07-16T05:46:40;7.80;;;6.20;;
5199;SDS011;2619;47.868;11.892;2023-07-16T05:49:06;7.03;;;5.30;;
5199;SDS011;2619;47.868;11.892;2023-07-16T05:51:32;6.27;;;5.30;;
5199;SDS011;2619;47.868;11.892;2023-07-16T05:53:57;6.37;;;5.30;;
5199;SDS011;2619;47.868;11.892;2023-07-16T05:56:23;5.70;;;5.10;;
5199;SDS011;2619;47.868;11.892;2023-07-16T05:58:48;6.80;;;5.43;;
5199;SDS011;2619;47.868;11.892;2023-07-16T06:01:14;5.87;;;5.00;;
5199;SDS011;2619;47.868;11.892;2023-07-16T06:03:39;7.13;;;5.90;;
5199;SDS011;2619;47.868;11.892;2023-07-16T06:06:05;7.63;;;6.40;;
5199;SDS011;2619;47.868;11.892;2023-07-16T06:08:33;6.67;;;5.37;;
5199;SDS011;2619;47.868;11.892;2023-07-16T06:10:58;5.73;;;4.70;;
5199;SDS011;2619;47.868;11.892;2023-07-16T06:13:24;6.13;;;5.33;;
5199;SDS011;2619;47.868;11.892;2023-07-16T06:15:49;6.20;;;5.30;;
5199;SDS011;2619;47.868;11.892;2023-07-16T06:18:15;6.17;;;4.83;;
5199;SDS011;2619;47.868;11.892;2023-07-16T06:20:46;5.80;;;5.03;;
5199;SDS011;2619;47.868;11.892;2023-07-16T06:23:12;6.47;;;4.80;;
5199;SDS011;2619;47.868;11.892;2023-07-16T06:25:38;6.27;;;4.80;;
5199;SDS011;2619;47.868;11.892;2023-07-16T06:28:09;5.30;;;4.80;;
5199;SDS011;2619;47.868;11.892;2023-07-16T06:30:35;9.23;;;5.60;;
5199;SDS011;2619;47.868;11.892;2023-07-16T06:33:00;5.93;;;4.90;;
5199;SDS011;2619;47.868;11.892;2023-07-16T06:35:26;5.33;;;4.40;;
5199;SDS011;2619;47.868;11.892;2023-07-16T06:37:51;6.00;;;5.40;;
5199;SDS011;2619;47.868;11.892;2023-07-16T06:40:17;5.80;;;4.77;;
5199;SDS011;2619;47.868;11.892;2023-07-16T06:42:42;7.40;;;4.70;;
5199;SDS011;2619;47.868;11.892;2023-07-16T06:45:08;6.30;;;4.47;;
5199;SDS011;2619;47.868;11.892;2023-07-16T06:47:34;5.67;;;4.30;;
5199;SDS011;2619;47.868;11.892;2023-07-16T06:49:59;7.10;;;4.80;;
5199;SDS011;2619;47.868;11.892;2023-07-16T06:52:25;5.73;;;4.53;;
5199;SDS011;2619;47.868;11.892;2023-07-16T06:54:52;5.07;;;4.27;;
5199;SDS011;2619;47.868;11.892;2023-07-16T06:57:19;4.80;;;4.30;;
5199;SDS011;2619;47.868;11.892;2023-07-16T06:59:44;5.50;;;3.80;;
5199;SDS011;2619;47.868;11.892;2023-07-16T07:02:10;5.40;;;4.07;;
5199;SDS011;2619;47.868;11.892;2023-07-16T07:04:37;8.17;;;4.13;;
5199;SDS011;2619;47.868;11.892;2023-07-16T07:07:02;4.10;;;3.47;;
5199;SDS011;2619;47.868;11.892;2023-07-16T07:09:28;5.87;;;4.30;;
5199;SDS011;2619;47.868;11.892;2023-07-16T07:11:54;4.23;;;3.43;;
5199;SDS011;2619;47.868;11.892;2023-07-16T07:14:19;4.47;;;3.73;;
5199;SDS011;2619;47.868;11.892;2023-07-16T07:16:45;4.17;;;3.57;;
5199;SDS011;2619;47.868;11.892;2023-07-16T07:19:10;5.10;;;3.23;;
5199;SDS011;2619;47.868;11.892;2023-07-16T07:21:36;4.40;;;3.60;;
5199;SDS011;2619;47.868;11.892;2023-07-16T07:24:02;4.00;;;3.57;;
5199;SDS011;2619;47.868;11.892;2023-07-16T07:26:27;4.80;;;3.67;;
5199;SDS011;2619;47.868;11.892;2023-07-16T07:28:53;3.43;;;2.87;;
5199;SDS011;2619;47.868;11.892;2023-07-16T07:31:18;3.93;;;3.07;;
5199;SDS011;2619;47.868;11.892;2023-07-16T07:33:44;5.93;;;3.33;;
5199;SDS011;2619;47.868;11.892;2023-07-16T07:36:09;4.97;;;3.30;;
5199;SDS011;2619;47.868;11.892;2023-07-16T07:38:35;3.83;;;3.13;;
5199;SDS011;2619;47.868;11.892;2023-07-16T07:41:01;3.90;;;3.50;;
5199;SDS011;2619;47.868;11.892;2023-07-16T07:43:27;6.20;;;4.40;;
5199;SDS011;2619;47.868;11.892;2023-07-16T07:45:52;4.60;;;3.73;;
5199;SDS011;2619;47.868;11.892;2023-07-16T07:48:18;4.80;;;3.40;;
5199;SDS011;2619;47.868;11.892;2023-07-16T07:50:45;5.67;;;4.60;;
5199;SDS011;2619;47.868;11.892;2023-07-16T07:53:11;5.33;;;3.83;;
5199;SDS011;2619;47.868;11.892;2023-07-16T07:55:36;5.60;;;4.10;;
5199;SDS011;2619;47.868;11.892;2023-07-16T07:58:02;5.67;;;4.20;;
5199;SDS011;2619;47.868;11.892;2023-07-16T08:00:28;5.80;;;4.07;;
5199;SDS011;2619;47.868;11.892;2023-07-16T08:02:53;5.33;;;3.67;;
5199;SDS011;2619;47.868;11.892;2023-07-16T08:05:19;4.43;;;4.03;;
5199;SDS011;2619;47.868;11.892;2023-07-16T08:07:44;4.03;;;3.60;;
5199;SDS011;2619;47.868;11.892;2023-07-16T08:10:10;4.73;;;3.90;;
5199;SDS011;2619;47.868;11.892;2023-07-16T08:12:35;6.40;;;4.13;;
5199;SDS011;2619;47.868;11.892;2023-07-16T08:15:01;5.50;;;3.90;;
5199;SDS011;2619;47.868;11.892;2023-07-16T08:17:27;5.33;;;3.90;;
5199;SDS011;2619;47.868;11.892;2023-07-16T08:19:52;4.27;;;3.87;;
5199;SDS011;2619;47.868;11.892;2023-07-16T08:22:18;4.80;;;3.47;;
5199;SDS011;2619;47.868;11.892;2023-07-16T08:24:44;3.50;;;3.20;;
5199;SDS011;2619;47.868;11.892;2023-07-16T08:27:09;4.30;;;3.37;;
5199;SDS011;2619;47.868;11.892;2023-07-16T08:29:36;3.90;;;3.50;;
5199;SDS011;2619;47.868;11.892;2023-07-16T08:32:01;4.37;;;3.43;;
5199;SDS011;2619;47.868;11.892;2023-07-16T08:34:28;3.77;;;3.37;;
5199;SDS011;2619;47.868;11.892;2023-07-16T08:36:53;3.87;;;3.03;;
5199;SDS011;2619;47.868;11.892;2023-07-16T08:39:19;4.97;;;3.67;;
5199;SDS011;2619;47.868;11.892;2023-07-16T08:41:45;4.20;;;3.43;;
5199;SDS011;2619;47.868;11.892;2023-07-16T08:44:11;5.03;;;3.83;;
5199;SDS011;2619;47.868;11.892;2023-07-16T08:46:37;4.23;;;3.20;;
5199;SDS011;2619;47.868;11.892;2023-07-16T08:49:05;4.70;;;3.77;;
5199;SDS011;2619;47.868;11.892;2023-07-16T08:51:32;3.70;;;3.30;;
5199;SDS011;2619;47.868;11.892;2023-07-16T08:53:59;6.10;;;3.40;;
5199;SDS011;2619;47.868;11.892;2023-07-16T08:56:26;5.87;;;3.30;;
5199;SDS011;2619;47.868;11.892;2023-07-16T08:58:53;4.50;;;4.10;;
5199;SDS011;2619;47.868;11.892;2023-07-16T09:01:23;4.53;;;4.13;;
5199;SDS011;2619;47.868;11.892;2023-07-16T09:03:49;3.80;;;3.30;;
5199;SDS011;2619;47.868;11.892;2023-07-16T09:06:14;4.57;;;3.63;;
5199;SDS011;2619;47.868;11.892;2023-07-16T09:08:41;4.00;;;3.60;;
5199;SDS011;2619;47.868;11.892;2023-07-16T09:11:10;4.07;;;3.60;;
5199;SDS011;2619;47.868;11.892;2023-07-16T09:13:37;3.90;;;3.20;;
5199;SDS011;2619;47.868;11.892;2023-07-16T09:16:02;5.50;;;3.30;;
5199;SDS011;2619;47.868;11.892;2023-07-16T09:18:28;4.03;;;2.90;;
5199;SDS011;2619;47.868;11.892;2023-07-16T09:21:03;3.13;;;2.73;;
5199;SDS011;2619;47.868;11.892;2023-07-16T09:23:31;4.27;;;2.90;;
5199;SDS011;2619;47.868;11.892;2023-07-16T09:25:57;4.00;;;3.30;;
5199;SDS011;2619;47.868;11.892;2023-07-16T09:28:23;4.13;;;2.90;;
5199;SDS011;2619;47.868;11.892;2023-07-16T09:30:50;3.80;;;2.93;;
5199;SDS011;2619;47.868;11.892;2023-07-16T09:33:17;3.70;;;2.70;;
5199;SDS011;2619;47.868;11.892;2023-07-16T09:35:47;3.80;;;2.67;;
5199;SDS011;2619;47.868;11.892;2023-07-16T09:38:14;3.60;;;3.23;;
5199;SDS011;2619;47.868;11.892;2023-07-16T09:40:41;5.10;;;2.60;;
5199;SDS011;2619;47.868;11.892;2023-07-16T09:43:10;3.60;;;2.67;;
5199;SDS011;2619;47.868;11.892;2023-07-16T09:45:37;3.33;;;3.00;;
5199;SDS011;2619;47.868;11.892;2023-07-16T09:48:03;3.80;;;3.10;;
5199;SDS011;2619;47.868;11.892;2023-07-16T09:50:31;3.77;;;3.10;;
5199;SDS011;2619;47.868;11.892;2023-07-16T09:52:58;4.93;;;3.10;;
5199;SDS011;2619;47.868;11.892;2023-07-16T09:55:24;4.40;;;3.10;;
5199;SDS011;2619;47.868;11.892;2023-07-16T09:57:52;3.80;;;3.40;;
5199;SDS011;2619;47.868;11.892;2023-07-16T10:00:21;3.50;;;2.80;;
5199;SDS011;2619;47.868;11.892;2023-07-16T10:02:48;4.20;;;2.90;;
5199;SDS011;2619;47.868;11.892;2023-07-16T10:07:50;3.67;;;3.23;;
5199;SDS011;2619;47.868;11.892;2023-07-16T10:10:17;3.80;;;2.80;;
5199;SDS011;2619;47.868;11.892;2023-07-16T10:12:54;3.60;;;2.80;;
5199;SDS011;2619;47.868;11.892;2023-07-16T10:15:26;3.20;;;2.60;;
5199;SDS011;2619;47.868;11.892;2023-07-16T10:17:53;3.17;;;2.43;;
5199;SDS011;2619;47.868;11.892;2023-07-16T10:20:29;2.90;;;2.60;;
5199;SDS011;2619;47.868;11.892;2023-07-16T10:23:10;4.10;;;2.90;;
5199;SDS011;2619;47.868;11.892;2023-07-16T10:25:39;3.50;;;3.20;;
5199;SDS011;2619;47.868;11.892;2023-07-16T10:28:04;6.60;;;2.97;;
5199;SDS011;2619;47.868;11.892;2023-07-16T10:30:30;3.13;;;2.83;;
5199;SDS011;2619;47.868;11.892;2023-07-16T10:32:57;3.30;;;2.70;;
5199;SDS011;2619;47.868;11.892;2023-07-16T10:35:25;3.30;;;2.70;;
5199;SDS011;2619;47.868;11.892;2023-07-16T10:37:51;3.03;;;2.53;;
5199;SDS011;2619;47.868;11.892;2023-07-16T10:40:16;4.17;;;3.17;;
5199;SDS011;2619;47.868;11.892;2023-07-16T10:42:42;3.93;;;2.80;;
5199;SDS011;2619;47.868;11.892;2023-07-16T10:45:09;3.73;;;2.43;;
5199;SDS011;2619;47.868;11.892;2023-07-16T10:47:36;3.07;;;2.57;;
5199;SDS011;2619;47.868;11.892;2023-07-16T10:50:06;3.67;;;2.77;;
5199;SDS011;2619;47.868;11.892;2023-07-16T10:52:33;3.13;;;2.50;;
5199;SDS011;2619;47.868;11.892;2023-07-16T10:55:00;2.90;;;2.13;;
5199;SDS011;2619;47.868;11.892;2023-07-16T10:57:26;3.00;;;2.40;;
5199;SDS011;2619;47.868;11.892;2023-07-16T10:59:52;2.70;;;2.03;;
5199;SDS011;2619;47.868;11.892;2023-07-16T11:02:20;2.90;;;2.10;;
5199;SDS011;2619;47.868;11.892;2023-07-16T11:04:47;3.03;;;2.23;;
5199;SDS011;2619;47.868;11.892;2023-07-16T11:07:13;3.60;;;2.17;;
5199;SDS011;2619;47.868;11.892;2023-07-16T11:09:49;2.93;;;2.50;;
5199;SDS011;2619;47.868;11.892;2023-07-16T11:12:18;4.00;;;2.57;;
5199;SDS011;2619;47.868;11.892;2023-07-16T11:14:49;3.73;;;2.10;;
5199;SDS011;2619;47.868;11.892;2023-07-16T11:17:20;3.00;;;2.30;;
5199;SDS011;2619;47.868;11.892;2023-07-16T11:19:48;3.70;;;1.93;;
5199;SDS011;2619;47.868;11.892;2023-07-16T11:22:15;2.67;;;1.90;;
5199;SDS011;2619;47.868;11.892;2023-07-16T11:24:41;2.47;;;1.90;;
5199;SDS011;2619;47.868;11.892;2023-07-16T11:27:25;3.30;;;2.37;;
5199;SDS011;2619;47.868;11.892;2023-07-16T11:29:53;2.70;;;2.03;;
5199;SDS011;2619;47.868;11.892;2023-07-16T11:34:55;2.97;;;2.03;;
5199;SDS011;2619;47.868;11.892;2023-07-16T11:37:21;2.90;;;1.97;;
5199;SDS011;2619;47.868;11.892;2023-07-16T11:39:49;2.93;;;2.20;;
5199;SDS011;2619;47.868;11.892;2023-07-16T11:42:17;2.83;;;1.83;;
5199;SDS011;2619;47.868;11.892;2023-07-16T11:44:48;3.00;;;2.03;;
5199;SDS011;2619;47.868;11.892;2023-07-16T11:47:14;3.97;;;2.20;;
5199;SDS011;2619;47.868;11.892;2023-07-16T11:49:40;3.73;;;2.03;;
5199;SDS011;2619;47.868;11.892;2023-07-16T11:52:06;5.13;;;2.27;;
5199;SDS011;2619;47.868;11.892;2023-07-16T11:54:32;3.97;;;2.37;;
5199;SDS011;2619;47.868;11.892;2023-07-16T11:56:58;3.73;;;2.13;;
5199;SDS011;2619;47.868;11.892;2023-07-16T11:59:23;2.40;;;1.77;;
5199;SDS011;2619;47.868;11.892;2023-07-16T12:01:49;4.47;;;2.23;;
5199;SDS011;2619;47.868;11.892;2023-07-16T12:04:15;2.63;;;2.27;;
5199;SDS011;2619;47.868;11.892;2023-07-16T12:06:42;3.23;;;2.37;;
5199;SDS011;2619;47.868;11.892;2023-07-16T12:09:07;5.70;;;2.00;;
5199;SDS011;2619;47.868;11.892;2023-07-16T12:11:33;3.33;;;2.30;;
5199;SDS011;2619;47.868;11.892;2023-07-16T12:13:58;2.70;;;2.23;;
5199;SDS011;2619;47.868;11.892;2023-07-16T12:16:24;4.67;;;2.60;;
5199;SDS011;2619;47.868;11.892;2023-07-16T12:18:50;2.43;;;2.03;;
5199;SDS011;2619;47.868;11.892;2023-07-16T12:21:15;2.80;;;2.27;;
5199;SDS011;2619;47.868;11.892;2023-07-16T12:23:41;3.13;;;1.93;;
5199;SDS011;2619;47.868;11.892;2023-07-16T12:26:06;3.10;;;2.27;;
5199;SDS011;2619;47.868;11.892;2023-07-16T12:28:33;2.83;;;2.10;;
5199;SDS011;2619;47.868;11.892;2023-07-16T12:30:59;4.63;;;2.93;;
5199;SDS011;2619;47.868;11.892;2023-07-16T12:33:24;2.70;;;2.20;;
5199;SDS011;2619;47.868;11.892;2023-07-16T12:35:50;2.90;;;1.90;;
5199;SDS011;2619;47.868;11.892;2023-07-16T12:38:15;2.90;;;2.00;;
5199;SDS011;2619;47.868;11.892;2023-07-16T12:40:41;2.90;;;2.53;;
5199;SDS011;2619;47.868;11.892;2023-07-16T12:43:07;3.23;;;2.63;;
5199;SDS011;2619;47.868;11.892;2023-07-16T12:45:32;3.00;;;2.20;;
5199;SDS011;2619;47.868;11.892;2023-07-16T12:47:58;5.43;;;3.60;;
5199;SDS011;2619;47.868;11.892;2023-07-16T12:50:23;3.13;;;2.33;;
5199;SDS011;2619;47.868;11.892;2023-07-16T12:52:50;3.50;;;2.30;;
5199;SDS011;2619;47.868;11.892;2023-07-16T12:55:17;3.10;;;2.50;;
5199;SDS011;2619;47.868;11.892;2023-07-16T12:57:42;4.53;;;3.60;;
5199;SDS011;2619;47.868;11.892;2023-07-16T13:00:08;3.50;;;2.93;;
5199;SDS011;2619;47.868;11.892;2023-07-16T13:02:34;3.13;;;2.83;;
5199;SDS011;2619;47.868;11.892;2023-07-16T13:05:01;3.30;;;2.97;;
5199;SDS011;2619;47.868;11.892;2023-07-16T13:07:26;3.47;;;2.93;;
5199;SDS011;2619;47.868;11.892;2023-07-16T13:09:52;3.10;;;2.80;;
5199;SDS011;2619;47.868;11.892;2023-07-16T13:12:18;4.97;;;2.60;;
5199;SDS011;2619;47.868;11.892;2023-07-16T13:14:43;3.90;;;2.87;;
5199;SDS011;2619;47.868;11.892;2023-07-16T13:17:09;3.30;;;2.43;;
5199;SDS011;2619;47.868;11.892;2023-07-16T13:19:34;3.60;;;2.80;;
5199;SDS011;2619;47.868;11.892;2023-07-16T13:22:00;4.03;;;2.37;;
5199;SDS011;2619;47.868;11.892;2023-07-16T13:24:26;4.23;;;2.60;;
5199;SDS011;2619;47.868;11.892;2023-07-16T13:26:52;3.30;;;2.90;;
5199;SDS011;2619;47.868;11.892;2023-07-16T13:29:17;3.83;;;2.60;;
5199;SDS011;2619;47.868;11.892;2023-07-16T13:31:43;2.80;;;2.33;;
5199;SDS011;2619;47.868;11.892;2023-07-16T13:34:09;3.30;;;2.40;;
5199;SDS011;2619;47.868;11.892;2023-07-16T13:36:34;3.67;;;2.53;;
5199;SDS011;2619;47.868;11.892;2023-07-16T13:39:00;3.10;;;2.60;;
5199;SDS011;2619;47.868;11.892;2023-07-16T13:41:25;3.13;;;2.53;;
5199;SDS011;2619;47.868;11.892;2023-07-16T13:43:51;3.70;;;2.53;;
5199;SDS011;2619;47.868;11.892;2023-07-16T13:46:18;2.90;;;2.50;;
5199;SDS011;2619;47.868;11.892;2023-07-16T13:48:43;3.53;;;2.50;;
5199;SDS011;2619;47.868;11.892;2023-07-16T13:51:09;3.97;;;2.60;;
5199;SDS011;2619;47.868;11.892;2023-07-16T13:53:34;4.57;;;3.07;;
5199;SDS011;2619;47.868;11.892;2023-07-16T13:56:00;4.83;;;2.87;;
5199;SDS011;2619;47.868;11.892;2023-07-16T13:58:25;3.07;;;2.77;;
5199;SDS011;2619;47.868;11.892;2023-07-16T14:00:51;3.60;;;2.80;;
5199;SDS011;2619;47.868;11.892;2023-07-16T14:03:17;3.80;;;3.00;;
5199;SDS011;2619;47.868;11.892;2023-07-16T14:05:42;4.23;;;2.80;;
5199;SDS011;2619;47.868;11.892;2023-07-16T14:08:08;3.47;;;3.17;;
5199;SDS011;2619;47.868;11.892;2023-07-16T14:10:33;4.60;;;2.83;;
5199;SDS011;2619;47.868;11.892;2023-07-16T14:12:59;4.13;;;2.70;;
5199;SDS011;2619;47.868;11.892;2023-07-16T14:15:24;6.00;;;3.67;;
5199;SDS011;2619;47.868;11.892;2023-07-16T14:17:50;6.17;;;3.23;;
5199;SDS011;2619;47.868;11.892;2023-07-16T14:20:16;5.87;;;3.77;;
5199;SDS011;2619;47.868;11.892;2023-07-16T14:22:41;4.00;;;2.70;;
5199;SDS011;2619;47.868;11.892;2023-07-16T14:25:07;3.63;;;2.93;;
5199;SDS011;2619;47.868;11.892;2023-07-16T14:27:34;4.00;;;2.83;;
5199;SDS011;2619;47.868;11.892;2023-07-16T14:29:59;3.40;;;3.00;;
5199;SDS011;2619;47.868;11.892;2023-07-16T14:32:25;4.40;;;3.63;;
5199;SDS011;2619;47.868;11.892;2023-07-16T14:34:51;4.30;;;2.97;;
5199;SDS011;2619;47.868;11.892;2023-07-16T14:37:16;3.13;;;2.83;;
5199;SDS011;2619;47.868;11.892;2023-07-16T14:39:42;4.37;;;3.30;;
5199;SDS011;2619;47.868;11.892;2023-07-16T14:42:08;4.20;;;3.80;;
5199;SDS011;2619;47.868;11.892;2023-07-16T14:44:34;5.70;;;3.17;;
5199;SDS011;2619;47.868;11.892;2023-07-16T14:46:59;5.00;;;3.47;;
5199;SDS011;2619;47.868;11.892;2023-07-16T14:49:25;3.37;;;3.07;;
5199;SDS011;2619;47.868;11.892;2023-07-16T14:51:51;3.83;;;3.40;;
5199;SDS011;2619;47.868;11.892;2023-07-16T14:54:16;5.30;;;3.70;;
5199;SDS011;2619;47.868;11.892;2023-07-16T14:56:42;3.57;;;3.00;;
5199;SDS011;2619;47.868;11.892;2023-07-16T14:59:08;4.10;;;3.43;;
5199;SDS011;2619;47.868;11.892;2023-07-16T15:01:34;3.93;;;3.33;;
5199;SDS011;2619;47.868;11.892;2023-07-16T15:03:59;4.20;;;3.10;;
5199;SDS011;2619;47.868;11.892;2023-07-16T15:06:25;3.90;;;3.40;;
5199;SDS011;2619;47.868;11.892;2023-07-16T15:08:51;4.07;;;3.67;;
5199;SDS011;2619;47.868;11.892;2023-07-16T15:11:17;3.43;;;2.93;;